createdAt,value
2024-02-27T00:00:54.836Z,490.00
2024-02-27T00:01:54.796Z,493.00
2024-02-27T00:02:54.919Z,494.00
2024-02-27T00:03:54.839Z,493.00
2024-02-27T00:04:54.855Z,495.00
2024-02-27T00:05:54.987Z,496.00
2024-02-27T00:06:54.995Z,494.00
2024-02-27T00:07:55.059Z,496.00
2024-02-27T00:08:54.959Z,493.00
2024-02-27T00:09:54.940Z,491.00
2024-02-27T00:10:55.013Z,492.00
2024-02-27T00:11:55.002Z,492.00
2024-02-27T00:12:55.015Z,493.00
2024-02-27T00:13:55.059Z,493.00
2024-02-27T00:14:55.076Z,494.00
2024-02-27T00:15:55.069Z,494.00
2024-02-27T00:16:55.102Z,494.00
2024-02-27T00:17:55.303Z,495.00
2024-02-27T00:18:55.262Z,492.00
2024-02-27T00:19:55.301Z,492.00
2024-02-27T00:20:55.291Z,493.00
2024-02-27T00:21:55.343Z,493.00
2024-02-27T00:22:55.361Z,493.00
2024-02-27T00:23:55.524Z,492.00
2024-02-27T00:24:55.461Z,490.00
2024-02-27T00:25:55.463Z,491.00
2024-02-27T00:26:55.589Z,492.00
2024-02-27T00:27:55.498Z,492.00
2024-02-27T00:28:55.531Z,492.00
2024-02-27T00:29:55.583Z,493.00
2024-02-27T00:30:55.578Z,496.00
2024-02-27T00:31:55.611Z,497.00
2024-02-27T00:32:55.757Z,496.00
2024-02-27T00:33:55.783Z,494.00
2024-02-27T00:34:55.834Z,494.00
2024-02-27T00:35:55.822Z,494.00
2024-02-27T00:36:55.834Z,494.00
2024-02-27T00:37:55.850Z,491.00
2024-02-27T00:38:55.987Z,491.00
2024-02-27T00:39:55.998Z,491.00
2024-02-27T00:40:55.944Z,490.00
2024-02-27T00:41:56.012Z,492.00
2024-02-27T00:42:56.000Z,490.00
2024-02-27T00:43:56.026Z,493.00
2024-02-27T00:44:56.069Z,495.00
2024-02-27T00:45:56.056Z,496.00
2024-02-27T00:46:56.076Z,495.00
2024-02-27T00:47:56.221Z,498.00
2024-02-27T00:48:56.207Z,500.00
2024-02-27T00:49:56.206Z,501.00
2024-02-27T00:50:56.216Z,501.00
2024-02-27T00:51:56.192Z,500.00
2024-02-27T00:52:56.163Z,502.00
2024-02-27T00:53:56.210Z,501.00
2024-02-27T00:54:56.185Z,500.00
2024-02-27T00:55:56.280Z,500.00
2024-02-27T00:56:56.271Z,500.00
2024-02-27T00:57:56.236Z,500.00
2024-02-27T00:58:56.281Z,496.00
2024-02-27T00:59:56.314Z,499.00
2024-02-27T01:00:56.355Z,497.00
2024-02-27T01:01:56.347Z,497.00
2024-02-27T01:02:56.413Z,498.00
2024-02-27T01:03:56.334Z,497.00
2024-02-27T01:04:56.460Z,495.00
2024-02-27T01:05:56.488Z,494.00
2024-02-27T01:06:56.410Z,494.00
2024-02-27T01:07:56.384Z,493.00
2024-02-27T01:08:56.494Z,494.00
2024-02-27T01:09:56.411Z,494.00
2024-02-27T01:10:56.428Z,493.00
2024-02-27T01:11:56.578Z,493.00
2024-02-27T01:12:56.440Z,494.00
2024-02-27T01:13:56.430Z,495.00
2024-02-27T01:14:56.547Z,494.00
2024-02-27T01:15:56.495Z,495.00
2024-02-27T01:16:56.513Z,494.00
2024-02-27T01:17:56.582Z,494.00
2024-02-27T01:18:56.667Z,492.00
2024-02-27T01:19:56.581Z,491.00
2024-02-27T01:20:56.591Z,493.00
2024-02-27T01:21:56.588Z,496.00
2024-02-27T01:22:56.622Z,496.00
2024-02-27T01:23:56.616Z,494.00
2024-02-27T01:24:56.596Z,493.00
2024-02-27T01:25:56.594Z,493.00
2024-02-27T01:26:56.622Z,494.00
2024-02-27T01:27:56.745Z,493.00
2024-02-27T01:28:56.667Z,491.00
2024-02-27T01:29:56.812Z,490.00
2024-02-27T01:30:56.689Z,492.00
2024-02-27T01:31:56.759Z,493.00
2024-02-27T01:32:56.911Z,495.00
2024-02-27T01:33:56.917Z,490.00
2024-02-27T01:34:57.008Z,488.00
2024-02-27T01:35:56.935Z,488.00
2024-02-27T01:36:56.818Z,491.00
2024-02-27T01:37:56.848Z,493.00
2024-02-27T01:38:56.870Z,491.00
2024-02-27T01:39:56.842Z,491.00
2024-02-27T01:40:56.856Z,489.00
2024-02-27T01:41:56.894Z,489.00
2024-02-27T01:42:56.858Z,489.00
2024-02-27T01:43:56.943Z,487.00
2024-02-27T01:44:56.964Z,487.00
2024-02-27T01:45:56.887Z,487.00
2024-02-27T01:46:56.944Z,488.00
2024-02-27T01:47:57.153Z,490.00
2024-02-27T01:48:57.064Z,487.00
2024-02-27T01:49:57.063Z,483.00
2024-02-27T01:50:57.062Z,484.00
2024-02-27T01:51:57.040Z,486.00
2024-02-27T01:52:57.021Z,486.00
2024-02-27T01:53:57.070Z,484.00
2024-02-27T01:54:57.076Z,483.00
2024-02-27T01:55:57.078Z,484.00
2024-02-27T01:56:57.151Z,484.00
2024-02-27T01:57:57.117Z,484.00
2024-02-27T01:58:57.162Z,483.00
2024-02-27T01:59:57.367Z,483.00
2024-02-27T02:00:57.412Z,481.00
2024-02-27T02:01:57.308Z,480.00
2024-02-27T02:02:57.373Z,478.00
2024-02-27T02:03:57.477Z,481.00
2024-02-27T02:04:57.507Z,482.00
2024-02-27T02:05:57.603Z,483.00
2024-02-27T02:06:57.679Z,484.00
2024-02-27T02:07:57.670Z,483.00
2024-02-27T02:08:57.732Z,483.00
2024-02-27T02:09:57.777Z,480.00
2024-02-27T02:10:57.880Z,478.00
2024-02-27T02:11:57.980Z,480.00
2024-02-27T02:12:57.986Z,483.00
2024-02-27T02:13:58.021Z,484.00
2024-02-27T02:14:58.175Z,484.00
2024-02-27T02:15:58.290Z,484.00
2024-02-27T02:16:58.197Z,484.00
2024-02-27T02:17:58.277Z,485.00
2024-02-27T02:18:58.361Z,486.00
2024-02-27T02:19:58.345Z,484.00
2024-02-27T02:20:58.378Z,483.00
2024-02-27T02:21:58.411Z,483.00
2024-02-27T02:22:58.506Z,484.00
2024-02-27T02:23:58.558Z,484.00
2024-02-27T02:24:58.571Z,487.00
2024-02-27T02:25:58.613Z,490.00
2024-02-27T02:26:58.657Z,489.00
2024-02-27T02:27:58.758Z,487.00
2024-02-27T02:28:58.746Z,484.00
2024-02-27T02:29:58.816Z,485.00
2024-02-27T02:30:58.822Z,486.00
2024-02-27T02:31:58.952Z,488.00
2024-02-27T02:32:58.954Z,490.00
2024-02-27T02:33:59.079Z,490.00
2024-02-27T02:34:59.135Z,492.00
2024-02-27T02:35:59.066Z,493.00
2024-02-27T02:36:59.074Z,493.00
2024-02-27T02:37:59.115Z,490.00
2024-02-27T02:38:59.156Z,489.00
2024-02-27T02:39:59.204Z,488.00
2024-02-27T02:40:59.219Z,485.00
2024-02-27T02:41:59.292Z,487.00
2024-02-27T02:42:59.317Z,487.00
2024-02-27T02:43:59.358Z,488.00
2024-02-27T02:44:59.442Z,490.00
2024-02-27T02:45:59.439Z,491.00
2024-02-27T02:46:59.470Z,490.00
2024-02-27T02:47:59.685Z,489.00
2024-02-27T02:48:59.592Z,489.00
2024-02-27T02:49:59.551Z,488.00
2024-02-27T02:50:59.587Z,488.00
2024-02-27T02:51:59.614Z,490.00
2024-02-27T02:52:59.619Z,490.00
2024-02-27T02:54:00.731Z,491.00
2024-02-27T02:54:59.673Z,491.00
2024-02-27T02:55:59.712Z,492.00
2024-02-27T02:56:59.771Z,492.00
2024-02-27T02:57:59.800Z,488.00
2024-02-27T02:58:59.818Z,485.00
2024-02-27T02:59:59.901Z,484.00
2024-02-27T03:01:00.028Z,484.00
2024-02-27T03:01:59.988Z,485.00
2024-02-27T03:03:00.031Z,484.00
2024-02-27T03:04:00.201Z,482.00
2024-02-27T03:05:00.089Z,481.00
2024-02-27T03:06:00.270Z,481.00
2024-02-27T03:07:00.300Z,480.00
2024-02-27T03:08:00.279Z,484.00
2024-02-27T03:09:00.304Z,486.00
2024-02-27T03:10:00.280Z,486.00
2024-02-27T03:11:00.354Z,482.00
2024-02-27T03:12:00.361Z,481.00
2024-02-27T03:13:00.362Z,481.00
2024-02-27T03:14:00.421Z,482.00
2024-02-27T03:15:00.516Z,480.00
2024-02-27T03:16:00.482Z,481.00
2024-02-27T03:17:00.500Z,482.00
2024-02-27T03:18:00.623Z,481.00
2024-02-27T03:19:00.626Z,480.00
2024-02-27T03:20:00.575Z,479.00
2024-02-27T03:21:00.613Z,477.00
2024-02-27T03:22:00.627Z,477.00
2024-02-27T03:23:00.651Z,478.00
2024-02-27T03:24:00.733Z,478.00
2024-02-27T03:25:00.702Z,478.00
2024-02-27T03:26:00.744Z,480.00
2024-02-27T03:27:00.795Z,482.00
2024-02-27T03:28:00.773Z,482.00
2024-02-27T03:29:00.804Z,484.00
2024-02-27T03:30:00.877Z,484.00
2024-02-27T03:31:00.864Z,484.00
2024-02-27T03:32:00.858Z,483.00
2024-02-27T03:33:01.128Z,484.00
2024-02-27T03:34:00.939Z,485.00
2024-02-27T03:35:01.018Z,486.00
2024-02-27T03:36:01.091Z,484.00
2024-02-27T03:37:00.954Z,487.00
2024-02-27T03:38:00.958Z,486.00
2024-02-27T03:39:01.021Z,484.00
2024-02-27T03:40:01.016Z,482.00
2024-02-27T03:41:01.024Z,479.00
2024-02-27T03:42:01.087Z,477.00
2024-02-27T03:43:01.124Z,478.00
2024-02-27T03:44:01.063Z,480.00
2024-02-27T03:45:01.122Z,479.00
2024-02-27T03:46:01.114Z,477.00
2024-02-27T03:47:01.111Z,476.00
2024-02-27T03:48:01.207Z,475.00
2024-02-27T03:49:01.226Z,474.00
2024-02-27T03:50:01.255Z,477.00
2024-02-27T03:51:01.246Z,478.00
2024-02-27T03:52:01.326Z,480.00
2024-02-27T03:53:01.294Z,481.00
2024-02-27T03:54:01.339Z,480.00
2024-02-27T03:55:01.354Z,479.00
2024-02-27T03:56:01.377Z,483.00
2024-02-27T03:57:01.461Z,481.00
2024-02-27T03:58:01.458Z,478.00
2024-02-27T03:59:01.496Z,480.00
2024-02-27T04:00:01.612Z,482.00
2024-02-27T04:01:01.749Z,480.00
2024-02-27T04:02:01.661Z,481.00
2024-02-27T04:03:01.744Z,481.00
2024-02-27T04:04:01.726Z,481.00
2024-02-27T04:05:01.827Z,478.00
2024-02-27T04:06:01.943Z,477.00
2024-02-27T04:07:01.984Z,478.00
2024-02-27T04:08:01.967Z,477.00
2024-02-27T04:09:02.032Z,481.00
2024-02-27T04:10:01.945Z,481.00
2024-02-27T04:11:01.994Z,481.00
2024-02-27T04:12:02.106Z,483.00
2024-02-27T04:13:02.061Z,483.00
2024-02-27T04:14:02.081Z,484.00
2024-02-27T04:15:02.176Z,484.00
2024-02-27T04:16:02.178Z,483.00
2024-02-27T04:17:02.184Z,483.00
2024-02-27T04:18:02.295Z,485.00
2024-02-27T04:19:02.331Z,487.00
2024-02-27T04:20:02.397Z,489.00
2024-02-27T04:21:02.442Z,487.00
2024-02-27T04:22:02.295Z,486.00
2024-02-27T04:23:02.296Z,486.00
2024-02-27T04:24:02.455Z,487.00
2024-02-27T04:25:02.348Z,487.00
2024-02-27T04:26:02.357Z,487.00
2024-02-27T04:27:02.402Z,488.00
2024-02-27T04:28:02.387Z,488.00
2024-02-27T04:29:02.391Z,489.00
2024-02-27T04:30:02.464Z,489.00
2024-02-27T04:31:02.441Z,487.00
2024-02-27T04:32:02.508Z,487.00
2024-02-27T04:33:02.659Z,488.00
2024-02-27T04:34:02.580Z,486.00
2024-02-27T04:35:02.576Z,486.00
2024-02-27T04:36:09.905Z,487.00
2024-02-27T04:37:09.812Z,482.00
2024-02-27T04:38:09.823Z,482.00
2024-02-27T04:39:09.930Z,483.00
2024-02-27T04:40:09.818Z,482.00
2024-02-27T04:41:09.829Z,484.00
2024-02-27T04:42:09.855Z,486.00
2024-02-27T04:43:09.845Z,486.00
2024-02-27T04:44:09.819Z,485.00
2024-02-27T04:45:09.913Z,484.00
2024-02-27T04:46:09.827Z,481.00
2024-02-27T04:47:09.820Z,484.00
2024-02-27T04:48:09.908Z,484.00
2024-02-27T04:49:09.900Z,483.00
2024-02-27T04:50:09.837Z,485.00
2024-02-27T04:51:09.877Z,485.00
2024-02-27T04:52:09.851Z,486.00
2024-02-27T04:53:09.856Z,485.00
2024-02-27T04:54:09.853Z,484.00
2024-02-27T04:55:09.915Z,486.00
2024-02-27T04:56:09.815Z,484.00
2024-02-27T04:57:09.948Z,485.00
2024-02-27T04:58:09.858Z,484.00
2024-02-27T04:59:09.852Z,483.00
2024-02-27T05:00:09.916Z,480.00
2024-02-27T05:01:09.853Z,480.00
2024-02-27T05:02:09.837Z,482.00
2024-02-27T05:03:09.878Z,484.00
2024-02-27T05:04:10.472Z,482.00
2024-02-27T05:05:09.856Z,481.00
2024-02-27T05:06:09.969Z,482.00
2024-02-27T05:07:09.917Z,481.00
2024-02-27T05:08:09.882Z,482.00
2024-02-27T05:09:09.898Z,482.00
2024-02-27T05:10:09.910Z,485.00
2024-02-27T05:11:10.026Z,487.00
2024-02-27T05:12:09.996Z,487.00
2024-02-27T05:13:09.963Z,489.00
2024-02-27T05:14:09.968Z,490.00
2024-02-27T05:15:10.021Z,492.00
2024-02-27T05:16:09.986Z,493.00
2024-02-27T05:17:10.003Z,493.00
2024-02-27T05:18:10.199Z,494.00
2024-02-27T05:19:10.085Z,497.00
2024-02-27T05:20:10.028Z,496.00
2024-02-27T05:21:10.065Z,496.00
2024-02-27T05:22:10.083Z,497.00
2024-02-27T05:23:10.063Z,498.00
2024-02-27T05:24:10.148Z,495.00
2024-02-27T05:25:10.071Z,494.00
2024-02-27T05:26:10.118Z,493.00
2024-02-27T05:27:10.210Z,491.00
2024-02-27T05:28:10.136Z,493.00
2024-02-27T05:29:10.137Z,492.00
2024-02-27T05:30:10.285Z,494.00
2024-02-27T05:31:10.153Z,494.00
2024-02-27T05:32:10.189Z,498.00
2024-02-27T05:33:10.284Z,497.00
2024-02-27T05:34:10.279Z,497.00
2024-02-27T05:35:10.220Z,497.00
2024-02-27T05:36:10.232Z,496.00
2024-02-27T05:37:10.228Z,497.00
2024-02-27T05:38:10.302Z,495.00
2024-02-27T05:39:10.351Z,492.00
2024-02-27T05:40:11.684Z,493.00
2024-02-27T05:41:10.336Z,495.00
2024-02-27T05:42:10.380Z,499.00
2024-02-27T05:43:10.474Z,500.00
2024-02-27T05:44:10.453Z,499.00
2024-02-27T05:45:10.537Z,497.00
2024-02-27T05:46:10.508Z,495.00
2024-02-27T05:47:10.534Z,497.00
2024-02-27T05:48:10.697Z,493.00
2024-02-27T05:49:10.688Z,492.00
2024-02-27T05:50:10.743Z,491.00
2024-02-27T05:51:10.812Z,489.00
2024-02-27T05:52:10.754Z,488.00
2024-02-27T05:53:10.803Z,487.00
2024-02-27T05:54:10.851Z,489.00
2024-02-27T05:55:10.885Z,492.00
2024-02-27T05:56:10.934Z,495.00
2024-02-27T05:57:10.968Z,495.00
2024-02-27T05:58:11.479Z,494.00
2024-02-27T05:59:11.122Z,494.00
2024-02-27T06:00:12.034Z,494.00
2024-02-27T06:01:33.722Z,496.00
2024-02-27T06:02:11.112Z,495.00
2024-02-27T06:03:11.153Z,495.00
2024-02-27T06:04:11.184Z,496.00
2024-02-27T06:05:11.119Z,498.00
2024-02-27T06:06:11.178Z,499.00
2024-02-27T06:07:11.324Z,498.00
2024-02-27T06:08:11.132Z,498.00
2024-02-27T06:09:11.151Z,497.00
2024-02-27T06:10:11.118Z,497.00
2024-02-27T06:11:11.213Z,498.00
2024-02-27T06:12:11.262Z,500.00
2024-02-27T06:13:11.139Z,499.00
2024-02-27T06:14:11.161Z,501.00
2024-02-27T06:15:11.190Z,502.00
2024-02-27T06:16:11.162Z,503.00
2024-02-27T06:17:11.176Z,505.00
2024-02-27T06:18:11.712Z,504.00
2024-02-27T06:19:11.211Z,503.00
2024-02-27T06:20:13.989Z,503.00
2024-02-27T06:21:11.172Z,503.00
2024-02-27T06:22:11.147Z,504.00
2024-02-27T06:23:11.176Z,501.00
2024-02-27T06:24:11.213Z,501.00
2024-02-27T06:25:11.181Z,500.00
2024-02-27T06:26:11.143Z,499.00
2024-02-27T06:27:11.273Z,498.00
2024-02-27T06:28:11.165Z,498.00
2024-02-27T06:29:11.142Z,496.00
2024-02-27T06:30:11.256Z,498.00
2024-02-27T06:31:11.144Z,501.00
2024-02-27T06:32:11.185Z,502.00
2024-02-27T06:33:11.651Z,505.00
2024-02-27T06:34:11.240Z,506.00
2024-02-27T06:35:11.148Z,512.00
2024-02-27T06:36:12.036Z,531.00
2024-02-27T06:37:12.020Z,549.00
2024-02-27T06:38:11.535Z,557.00
2024-02-27T06:39:11.237Z,578.00
2024-02-27T06:40:11.174Z,602.00
2024-02-27T06:41:11.158Z,614.00
2024-02-27T06:42:11.213Z,663.00
2024-02-27T06:43:11.178Z,641.00
2024-02-27T06:44:11.176Z,642.00
2024-02-27T06:45:33.828Z,642.00
2024-02-27T06:46:11.202Z,646.00
2024-02-27T06:47:11.248Z,658.00
2024-02-27T06:48:11.731Z,688.00
2024-02-27T06:49:15.822Z,708.00
2024-02-27T06:50:12.288Z,756.00
2024-02-27T06:51:11.205Z,771.00
2024-02-27T06:52:11.157Z,781.00
2024-02-27T06:53:11.205Z,804.00
2024-02-27T06:54:11.226Z,819.00
2024-02-27T06:55:11.185Z,845.00
2024-02-27T06:56:11.203Z,889.00
2024-02-27T06:57:11.266Z,897.00
2024-02-27T06:58:11.211Z,906.00
2024-02-27T06:59:11.299Z,920.00
2024-02-27T07:00:11.381Z,955.00
2024-02-27T07:01:11.377Z,980.00
2024-02-27T07:02:11.440Z,1003.00
2024-02-27T07:03:11.655Z,1022.00
2024-02-27T07:04:11.579Z,1087.00
2024-02-27T07:05:11.615Z,1100.00
2024-02-27T07:06:11.664Z,1146.00
2024-02-27T07:07:12.679Z,1152.00
2024-02-27T07:08:12.016Z,1167.00
2024-02-27T07:09:11.783Z,1193.00
2024-02-27T07:10:12.436Z,1211.00
2024-02-27T07:11:11.785Z,1258.00
2024-02-27T07:12:11.850Z,1310.00
2024-02-27T07:13:11.892Z,1355.00
2024-02-27T07:14:11.841Z,1368.00
2024-02-27T07:15:11.893Z,1382.00
2024-02-27T07:16:11.895Z,1389.00
2024-02-27T07:17:11.971Z,1398.00
2024-02-27T07:18:12.098Z,1406.00
2024-02-27T07:19:12.066Z,1418.00
2024-02-27T07:20:11.966Z,1443.00
2024-02-27T07:21:11.979Z,1491.00
2024-02-27T07:22:11.988Z,1502.00
2024-02-27T07:23:12.049Z,1524.00
2024-02-27T07:24:12.091Z,1552.00
2024-02-27T07:25:12.049Z,1570.00
2024-02-27T07:26:12.048Z,1581.00
2024-02-27T07:27:12.095Z,1592.00
2024-02-27T07:28:17.404Z,1601.00
2024-02-27T07:29:13.090Z,1619.00
2024-02-27T07:30:12.181Z,1633.00
2024-02-27T07:31:12.319Z,1660.00
2024-02-27T07:32:12.216Z,1705.00
2024-02-27T07:33:12.430Z,1722.00
2024-02-27T07:34:12.376Z,1738.00
2024-02-27T07:35:12.396Z,1760.00
2024-02-27T07:36:12.387Z,1776.00
2024-02-27T07:37:12.354Z,1795.00
2024-02-27T07:38:12.363Z,1787.00
2024-02-27T07:39:12.581Z,1746.00
2024-02-27T07:40:12.485Z,1718.00
2024-02-27T07:41:12.552Z,1658.00
2024-02-27T07:42:12.577Z,1593.00
2024-02-27T07:43:12.623Z,1555.00
2024-02-27T07:44:12.611Z,1566.00
2024-02-27T07:45:12.698Z,1573.00
2024-02-27T07:46:12.727Z,1577.00
2024-02-27T07:47:12.748Z,1569.00
2024-02-27T07:48:12.951Z,1050.00
2024-02-27T07:49:12.785Z,1197.00
2024-02-27T07:50:12.774Z,1014.00
2024-02-27T07:51:12.914Z,841.00
2024-02-27T07:52:12.917Z,821.00
2024-02-27T07:53:12.895Z,803.00
2024-02-27T07:54:12.972Z,803.00
2024-02-27T07:55:13.537Z,806.00
2024-02-27T07:56:13.060Z,757.00
2024-02-27T07:57:13.099Z,768.00
2024-02-27T07:58:13.128Z,783.00
2024-02-27T07:59:13.190Z,785.00
2024-02-27T08:00:13.275Z,783.00
2024-02-27T08:01:15.219Z,800.00
2024-02-27T08:02:13.357Z,800.00
2024-02-27T08:03:13.528Z,783.00
2024-02-27T08:04:13.633Z,791.00
2024-02-27T08:05:13.454Z,784.00
2024-02-27T08:06:13.688Z,776.00
2024-02-27T08:07:13.897Z,777.00
2024-02-27T08:08:13.662Z,832.00
2024-02-27T08:09:14.090Z,825.00
2024-02-27T08:10:13.794Z,779.00
2024-02-27T08:11:13.915Z,786.00
2024-02-27T08:12:13.913Z,789.00
2024-02-27T08:13:14.006Z,806.00
2024-02-27T08:14:15.721Z,852.00
2024-02-27T08:15:14.134Z,807.00
2024-02-27T08:16:15.243Z,875.00
2024-02-27T08:17:14.206Z,797.00
2024-02-27T08:18:14.338Z,925.00
2024-02-27T08:19:14.655Z,947.00
2024-02-27T08:20:14.384Z,933.00
2024-02-27T08:21:14.440Z,926.00
2024-02-27T08:22:14.484Z,890.00
2024-02-27T08:23:14.662Z,947.00
2024-02-27T08:24:15.100Z,884.00
2024-02-27T08:25:14.629Z,850.00
2024-02-27T08:26:14.679Z,797.00
2024-02-27T08:27:14.748Z,793.00
2024-02-27T08:28:14.764Z,793.00
2024-02-27T08:29:15.088Z,969.00
2024-02-27T08:30:15.546Z,894.00
2024-02-27T08:31:14.987Z,870.00
2024-02-27T08:32:15.005Z,806.00
2024-02-27T08:33:15.120Z,798.00
2024-02-27T08:34:15.678Z,886.00
2024-02-27T08:35:15.116Z,859.00
2024-02-27T08:36:15.174Z,859.00
2024-02-27T08:37:15.236Z,854.00
2024-02-27T08:38:15.262Z,905.00
2024-02-27T08:39:15.468Z,912.00
2024-02-27T08:40:15.367Z,873.00
2024-02-27T08:41:15.437Z,873.00
2024-02-27T08:42:15.510Z,882.00
2024-02-27T08:43:15.494Z,875.00
2024-02-27T08:44:16.113Z,876.00
2024-02-27T08:45:15.651Z,865.00
2024-02-27T08:46:15.718Z,924.00
2024-02-27T08:47:15.729Z,937.00
2024-02-27T08:48:15.859Z,950.00
2024-02-27T08:49:15.894Z,957.00
2024-02-27T08:50:15.875Z,966.00
2024-02-27T08:51:15.989Z,972.00
2024-02-27T08:52:15.962Z,974.00
2024-02-27T08:53:16.011Z,981.00
2024-02-27T08:54:16.139Z,990.00
2024-02-27T08:55:16.143Z,1004.00
2024-02-27T08:56:16.122Z,1084.00
2024-02-27T08:57:16.172Z,1079.00
2024-02-27T08:58:16.156Z,1077.00
2024-02-27T08:59:16.205Z,1078.00
2024-02-27T09:00:16.341Z,1090.00
2024-02-27T09:01:16.309Z,1094.00
2024-02-27T09:02:16.279Z,1093.00
2024-02-27T09:03:16.401Z,1104.00
2024-02-27T09:04:16.449Z,1114.00
2024-02-27T09:05:16.394Z,1113.00
2024-02-27T09:06:16.482Z,1110.00
2024-02-27T09:07:16.585Z,1108.00
2024-02-27T09:08:16.454Z,1111.00
2024-02-27T09:09:16.517Z,1120.00
2024-02-27T09:10:16.461Z,1120.00
2024-02-27T09:11:16.575Z,1117.00
2024-02-27T09:12:16.586Z,1116.00
2024-02-27T09:13:16.462Z,1113.00
2024-02-27T09:14:16.528Z,1116.00
2024-02-27T09:15:16.566Z,1121.00
2024-02-27T09:16:16.528Z,1126.00
2024-02-27T09:17:16.546Z,1135.00
2024-02-27T09:18:16.736Z,1157.00
2024-02-27T09:19:16.652Z,1206.00
2024-02-27T09:20:16.601Z,1210.00
2024-02-27T09:21:16.655Z,1216.00
2024-02-27T09:22:16.671Z,1251.00
2024-02-27T09:23:16.717Z,1278.00
2024-02-27T09:24:16.775Z,1300.00
2024-02-27T09:25:16.803Z,1367.00
2024-02-27T09:26:16.842Z,1381.00
2024-02-27T09:27:17.005Z,1419.00
2024-02-27T09:28:16.957Z,1437.00
2024-02-27T09:29:17.139Z,1454.00
2024-02-27T09:30:17.082Z,1480.00
2024-02-27T09:31:24.096Z,1561.00
2024-02-27T09:32:20.033Z,1569.00
2024-02-27T09:33:17.292Z,1564.00
2024-02-27T09:34:17.246Z,1562.00
2024-02-27T09:35:17.179Z,1516.00
2024-02-27T09:36:17.168Z,1517.00
2024-02-27T09:37:17.142Z,1603.00
2024-02-27T09:38:17.139Z,1540.00
2024-02-27T09:39:17.152Z,1461.00
2024-02-27T09:40:17.265Z,1569.00
2024-02-27T09:41:17.132Z,1522.00
2024-02-27T09:42:33.902Z,1167.00
2024-02-27T09:43:18.292Z,925.00
2024-02-27T09:44:17.260Z,971.00
2024-02-27T09:45:17.165Z,963.00
2024-02-27T09:46:17.162Z,956.00
2024-02-27T09:47:17.153Z,1093.00
2024-02-27T09:48:17.321Z,1207.00
2024-02-27T09:49:28.900Z,1177.00
2024-02-27T09:50:18.643Z,1091.00
2024-02-27T09:51:17.202Z,992.00
2024-02-27T09:52:17.192Z,1095.00
2024-02-27T09:53:17.181Z,1169.00
2024-02-27T09:54:17.152Z,1149.00
2024-02-27T09:55:17.636Z,1150.00
2024-02-27T09:56:17.175Z,1170.00
2024-02-27T09:57:17.198Z,1173.00
2024-02-27T09:58:17.278Z,1184.00
2024-02-27T09:59:17.270Z,1190.00
2024-02-27T10:00:17.357Z,964.00
2024-02-27T10:01:17.393Z,946.00
2024-02-27T10:02:17.440Z,911.00
2024-02-27T10:03:17.222Z,894.00
2024-02-27T10:04:17.274Z,931.00
2024-02-27T10:05:17.668Z,859.00
2024-02-27T10:06:18.181Z,839.00
2024-02-27T10:07:17.192Z,836.00
2024-02-27T10:08:17.198Z,842.00
2024-02-27T10:09:17.218Z,875.00
2024-02-27T10:10:17.687Z,875.00
2024-02-27T10:11:17.212Z,872.00
2024-02-27T10:12:17.245Z,851.00
2024-02-27T10:13:17.229Z,836.00
2024-02-27T10:14:17.245Z,837.00
2024-02-27T10:15:17.471Z,832.00
2024-02-27T10:16:17.308Z,815.00
2024-02-27T10:17:17.354Z,812.00
2024-02-27T10:18:17.549Z,825.00
2024-02-27T10:19:17.513Z,905.00
2024-02-27T10:20:17.500Z,910.00
2024-02-27T10:21:17.538Z,957.00
2024-02-27T10:22:17.589Z,988.00
2024-02-27T10:23:17.619Z,1000.00
2024-02-27T10:24:17.663Z,1046.00
2024-02-27T10:25:17.650Z,1060.00
2024-02-27T10:26:17.684Z,1062.00
2024-02-27T10:27:17.758Z,1067.00
2024-02-27T10:28:17.729Z,1055.00
2024-02-27T10:29:17.787Z,1333.00
2024-02-27T10:30:17.817Z,1061.00
2024-02-27T10:31:17.837Z,928.00
2024-02-27T10:32:17.814Z,1018.00
2024-02-27T10:33:17.973Z,962.00
2024-02-27T10:34:18.009Z,874.00
2024-02-27T10:35:18.393Z,870.00
2024-02-27T10:36:18.156Z,864.00
2024-02-27T10:37:18.042Z,853.00
2024-02-27T10:38:18.045Z,850.00
2024-02-27T10:39:18.130Z,854.00
2024-02-27T10:40:18.645Z,850.00
2024-02-27T10:41:18.168Z,849.00
2024-02-27T10:42:18.233Z,859.00
2024-02-27T10:43:18.298Z,858.00
2024-02-27T10:44:18.298Z,848.00
2024-02-27T10:45:18.344Z,846.00
2024-02-27T10:46:18.381Z,898.00
2024-02-27T10:47:18.389Z,877.00
2024-02-27T10:48:21.759Z,914.00
2024-02-27T10:49:19.550Z,917.00
2024-02-27T10:50:18.718Z,939.00
2024-02-27T10:51:18.429Z,973.00
2024-02-27T10:52:18.420Z,973.00
2024-02-27T10:53:18.403Z,1024.00
2024-02-27T10:54:19.542Z,1025.00
2024-02-27T10:55:18.642Z,1008.00
2024-02-27T10:56:18.400Z,966.00
2024-02-27T10:57:18.399Z,960.00
2024-02-27T10:58:18.415Z,847.00
2024-02-27T10:59:18.397Z,853.00
2024-02-27T11:00:18.682Z,828.00
2024-02-27T11:01:18.455Z,797.00
2024-02-27T11:02:18.435Z,763.00
2024-02-27T11:03:18.450Z,762.00
2024-02-27T11:04:18.403Z,755.00
2024-02-27T11:05:18.882Z,751.00
2024-02-27T11:06:18.448Z,749.00
2024-02-27T11:07:18.554Z,741.00
2024-02-27T11:08:18.402Z,731.00
2024-02-27T11:09:18.403Z,697.00
2024-02-27T11:10:18.621Z,686.00
2024-02-27T11:11:18.503Z,673.00
2024-02-27T11:12:18.816Z,667.00
2024-02-27T11:13:18.587Z,662.00
2024-02-27T11:14:18.678Z,656.00
2024-02-27T11:15:19.194Z,648.00
2024-02-27T11:16:18.740Z,640.00
2024-02-27T11:17:18.841Z,637.00
2024-02-27T11:18:18.937Z,633.00
2024-02-27T11:19:18.972Z,626.00
2024-02-27T11:20:18.999Z,617.00
2024-02-27T11:21:19.058Z,614.00
2024-02-27T11:22:19.075Z,609.00
2024-02-27T11:23:19.124Z,607.00
2024-02-27T11:24:19.206Z,603.00
2024-02-27T11:25:19.639Z,600.00
2024-02-27T11:26:19.378Z,599.00
2024-02-27T11:27:19.435Z,595.00
2024-02-27T11:28:19.422Z,590.00
2024-02-27T11:29:19.516Z,586.00
2024-02-27T11:30:19.789Z,580.00
2024-02-27T11:31:19.674Z,580.00
2024-02-27T11:32:19.672Z,667.00
2024-02-27T11:33:19.999Z,707.00
2024-02-27T11:34:19.891Z,800.00
2024-02-27T11:35:20.206Z,820.00
2024-02-27T11:36:19.949Z,835.00
2024-02-27T11:37:20.028Z,832.00
2024-02-27T11:38:20.087Z,830.00
2024-02-27T11:39:20.156Z,825.00
2024-02-27T11:40:20.713Z,818.00
2024-02-27T11:41:20.243Z,806.00
2024-02-27T11:42:20.254Z,909.00
2024-02-27T11:43:20.308Z,784.00
2024-02-27T11:44:20.402Z,770.00
2024-02-27T11:45:20.534Z,765.00
2024-02-27T11:46:20.484Z,763.00
2024-02-27T11:47:20.518Z,765.00
2024-02-27T11:48:20.682Z,773.00
2024-02-27T11:49:20.703Z,776.00
2024-02-27T11:50:23.624Z,775.00
2024-02-27T11:51:20.685Z,779.00
2024-02-27T11:52:20.688Z,783.00
2024-02-27T11:53:20.697Z,789.00
2024-02-27T11:54:20.726Z,782.00
2024-02-27T11:55:20.699Z,771.00
2024-02-27T11:56:21.224Z,762.00
2024-02-27T11:57:20.738Z,753.00
2024-02-27T11:58:20.667Z,746.00
2024-02-27T11:59:20.729Z,738.00
2024-02-27T12:00:20.704Z,734.00
2024-02-27T12:01:22.093Z,730.00
2024-02-27T12:02:20.733Z,731.00
2024-02-27T12:03:21.010Z,797.00
2024-02-27T12:04:20.730Z,821.00
2024-02-27T12:05:20.766Z,822.00
2024-02-27T12:06:20.755Z,827.00
2024-02-27T12:07:20.727Z,837.00
2024-02-27T12:08:20.709Z,840.00
2024-02-27T12:09:20.717Z,845.00
2024-02-27T12:10:20.715Z,850.00
2024-02-27T12:11:20.842Z,866.00
2024-02-27T12:12:20.747Z,880.00
2024-02-27T12:13:22.330Z,890.00
2024-02-27T12:14:20.812Z,903.00
2024-02-27T12:15:20.897Z,907.00
2024-02-27T12:16:20.917Z,914.00
2024-02-27T12:17:20.974Z,930.00
2024-02-27T12:18:21.071Z,937.00
2024-02-27T12:19:21.150Z,940.00
2024-02-27T12:20:21.103Z,946.00
2024-02-27T12:21:21.231Z,944.00
2024-02-27T12:22:21.174Z,947.00
2024-02-27T12:23:21.200Z,958.00
2024-02-27T12:24:21.271Z,992.00
2024-02-27T12:25:21.295Z,993.00